Las Vegas, Nevada
Traffic Map
Current Weather Conditions
Las Vegas, Nevada
Clear
Clear
40°
Feels Like: 40°
Wind Chill: 40° Ceiling: Unl
Heat Index: 40° Visibility: 10mi
Dew Point: Wind: 3mph
Humidity: 20% Direction: 230° (SW)
Pressure: 30.37in Gusts: 0mph
Raw Report DataKLAS 121356Z 23003KT 10SM CLR 04/M17 A3037 RMK AO2 SLP284 T00441172
Traffic Incident Summary
Active as of:
Severity:
Category:
InformationThere was an issue retrieving the traffic information for this location. Please try a different location or try again shortly.
Advertisements